<?xml version="1.0" encoding="UTF-8" standalone="no" ?>
<gpx xmlns="http://www.topografix.com/GPX/1/1" xmlns:xsi="http://www.w3.org/2001/XMLSchema-instance" xsi:schemaLocation="http://www.topografix.com/GPX/1/1 http://www.topografix.com/GPX/1/1/gpx.xsd" version="1.1" creator="VisuGPX - https://www.visugpx.com">
  <metadata>
    <name>luzech 6 descentes</name>
    <desc><![CDATA[parcours typé enduro avec de belles descentes]]></desc>
  </metadata>
  <trk>
    <name><![CDATA[2014-04-01-08-18-57]]></name>
    <trkseg>
      <trkpt lat="44.45601" lon="1.29453">
        <ele>245.259</ele>
        <time>2014-04-01T09:40:20Z</time>
      </trkpt>
      <trkpt lat="44.45605" lon="1.29438">
        <ele>247.629</ele>
        <time>2014-04-01T09:40:28Z</time>
      </trkpt>
      <trkpt lat="44.45607" lon="1.29431">
        <ele>248.929</ele>
        <time>2014-04-01T09:40:33Z</time>
      </trkpt>
      <trkpt lat="44.45603" lon="1.29426">
        <ele>249.638</ele>
        <time>2014-04-01T09:40:37Z</time>
      </trkpt>
      <trkpt lat="44.45589" lon="1.29419">
        <ele>250.848</ele>
        <time>2014-04-01T09:40:45Z</time>
      </trkpt>
      <trkpt lat="44.45574" lon="1.29415">
        <ele>252.398</ele>
        <time>2014-04-01T09:40:53Z</time>
      </trkpt>
      <trkpt lat="44.45557" lon="1.29412">
        <ele>254.588</ele>
        <time>2014-04-01T09:41:02Z</time>
      </trkpt>
      <trkpt lat="44.45536" lon="1.2941">
        <ele>257.316</ele>
        <time>2014-04-01T09:41:13Z</time>
      </trkpt>
      <trkpt lat="44.4552" lon="1.29412">
        <ele>259.078</ele>
        <time>2014-04-01T09:41:22Z</time>
      </trkpt>
      <trkpt lat="44.45505" lon="1.29416">
        <ele>260.798</ele>
        <time>2014-04-01T09:41:30Z</time>
      </trkpt>
      <trkpt lat="44.45489" lon="1.2942">
        <ele>262.148</ele>
        <time>2014-04-01T09:41:39Z</time>
      </trkpt>
      <trkpt lat="44.45471" lon="1.29427">
        <ele>264.288</ele>
        <time>2014-04-01T09:41:49Z</time>
      </trkpt>
      <trkpt lat="44.45454" lon="1.29432">
        <ele>266.488</ele>
        <time>2014-04-01T09:41:59Z</time>
      </trkpt>
      <trkpt lat="44.45436" lon="1.29437">
        <ele>268.658</ele>
        <time>2014-04-01T09:42:09Z</time>
      </trkpt>
      <trkpt lat="44.45422" lon="1.29442">
        <ele>269.917</ele>
        <time>2014-04-01T09:42:17Z</time>
      </trkpt>
      <trkpt lat="44.45406" lon="1.29447">
        <ele>271.498</ele>
        <time>2014-04-01T09:42:26Z</time>
      </trkpt>
      <trkpt lat="44.45388" lon="1.29452">
        <ele>273.068</ele>
        <time>2014-04-01T09:42:36Z</time>
      </trkpt>
      <trkpt lat="44.45369" lon="1.29452">
        <ele>274.677</ele>
        <time>2014-04-01T09:42:46Z</time>
      </trkpt>
      <trkpt lat="44.45356" lon="1.29447">
        <ele>275.587</ele>
        <time>2014-04-01T09:42:54Z</time>
      </trkpt>
      <trkpt lat="44.45343" lon="1.29436">
        <ele>277.108</ele>
        <time>2014-04-01T09:43:02Z</time>
      </trkpt>
      <trkpt lat="44.45331" lon="1.2942">
        <ele>278.637</ele>
        <time>2014-04-01T09:43:11Z</time>
      </trkpt>
      <trkpt lat="44.45322" lon="1.29404">
        <ele>278.757</ele>
        <time>2014-04-01T09:43:18Z</time>
      </trkpt>
      <trkpt lat="44.45312" lon="1.29386">
        <ele>279.766</ele>
        <time>2014-04-01T09:43:26Z</time>
      </trkpt>
      <trkpt lat="44.453" lon="1.29372">
        <ele>280.016</ele>
        <time>2014-04-01T09:43:33Z</time>
      </trkpt>
      <trkpt lat="44.45282" lon="1.2936">
        <ele>279.105</ele>
        <time>2014-04-01T09:43:40Z</time>
      </trkpt>
      <trkpt lat="44.45255" lon="1.29345">
        <ele>277.205</ele>
        <time>2014-04-01T09:43:48Z</time>
      </trkpt>
      <trkpt lat="44.45224" lon="1.29329">
        <ele>276.626</ele>
        <time>2014-04-01T09:43:56Z</time>
      </trkpt>
      <trkpt lat="44.45198" lon="1.29316">
        <ele>276.807</ele>
        <time>2014-04-01T09:44:03Z</time>
      </trkpt>
      <trkpt lat="44.45165" lon="1.29298">
        <ele>277.787</ele>
        <time>2014-04-01T09:44:13Z</time>
      </trkpt>
      <trkpt lat="44.45147" lon="1.29292">
        <ele>279.766</ele>
        <time>2014-04-01T09:44:20Z</time>
      </trkpt>
      <trkpt lat="44.45135" lon="1.29304">
        <ele>280.186</ele>
        <time>2014-04-01T09:44:26Z</time>
      </trkpt>
      <trkpt lat="44.45113" lon="1.29317">
        <ele>282.367</ele>
        <time>2014-04-01T09:44:35Z</time>
      </trkpt>
      <trkpt lat="44.45096" lon="1.29326">
        <ele>284.336</ele>
        <time>2014-04-01T09:44:43Z</time>
      </trkpt>
      <trkpt lat="44.45085" lon="1.2934">
        <ele>285.626</ele>
        <time>2014-04-01T09:44:50Z</time>
      </trkpt>
      <trkpt lat="44.45076" lon="1.29359">
        <ele>286.616</ele>
        <time>2014-04-01T09:44:57Z</time>
      </trkpt>
      <trkpt lat="44.45059" lon="1.2937">
        <ele>287.396</ele>
        <time>2014-04-01T09:45:05Z</time>
      </trkpt>
      <trkpt lat="44.45052" lon="1.29372">
        <ele>287.365</ele>
        <time>2014-04-01T09:45:09Z</time>
      </trkpt>
      <trkpt lat="44.4505" lon="1.29393">
        <ele>286.765</ele>
        <time>2014-04-01T09:45:16Z</time>
      </trkpt>
      <trkpt lat="44.4505" lon="1.29407">
        <ele>286.465</ele>
        <time>2014-04-01T09:45:21Z</time>
      </trkpt>
      <trkpt lat="44.45046" lon="1.29424">
        <ele>286.465</ele>
        <time>2014-04-01T09:45:29Z</time>
      </trkpt>
      <trkpt lat="44.45046" lon="1.29424">
        <ele>286.56</ele>
        <time>2014-04-01T09:45:30Z</time>
      </trkpt>
    </trkseg>
  </trk>
</gpx>